Time;durP1;ratioP1;P1;durP2;ratioP2;P2;SDS_P1;SDS_P2;PMS_P1;PMS_P2;Temp;Humidity;BMP_temperature;BMP_pressure;BME280_temperature;BME280_humidity;BME280_pressure;Samples;Min_cycle;Max_cycle;Signal;HPM_P1;HPM_P2
2022/01/06 00:01:58;;;;;;;11.90;2.20;;;0.90;99.90;;;;;;5034466;28;20370;-74
2022/01/06 00:04:24;;;;;;;6.77;2.70;;;0.90;99.90;;;;;;5034455;28;20493;-74
2022/01/06 00:06:50;;;;;;;4.70;2.27;;;0.90;99.90;;;;;;5034927;28;20509;-74
2022/01/06 00:09:17;;;;;;;7.17;2.10;;;0.90;99.90;;;;;;5034367;28;20036;-75
2022/01/06 00:11:44;;;;;;;10.63;2.67;;;0.90;99.90;;;;;;5034239;28;20033;-74
2022/01/06 00:14:18;;;;;;;7.50;2.40;;;0.90;99.90;;;;;;5034091;28;20033;-74
2022/01/06 00:24:23;;;;;;;8.13;1.70;;;1.00;99.90;;;;;;5034127;28;20107;-77
2022/01/06 00:26:49;;;;;;;6.33;1.87;;;1.10;99.90;;;;;;5034382;28;20021;-77
2022/01/06 00:29:15;;;;;;;5.00;2.57;;;1.00;99.90;;;;;;5034433;28;20029;-77
2022/01/06 00:31:41;;;;;;;8.73;2.20;;;1.10;99.90;;;;;;5033383;28;20053;-77
2022/01/06 00:34:10;;;;;;;10.60;2.07;;;1.00;99.90;;;;;;5034289;28;20365;-77
2022/01/06 00:36:40;;;;;;;5.17;2.10;;;0.90;99.90;;;;;;5033957;28;20021;-77
2022/01/06 00:39:07;;;;;;;11.27;2.33;;;0.90;99.90;;;;;;5034238;28;20068;-77
2022/01/06 00:41:34;;;;;;;6.57;2.10;;;0.80;99.90;;;;;;5034410;28;20048;-77
2022/01/06 00:44:00;;;;;;;9.70;2.67;;;0.80;99.90;;;;;;5034185;28;20561;-77
2022/01/06 00:46:26;;;;;;;9.10;2.73;;;0.70;99.90;;;;;;5034252;28;20470;-77
2022/01/06 00:48:51;;;;;;;7.10;2.40;;;0.60;99.90;;;;;;5034128;28;20052;-77
2022/01/06 00:51:17;;;;;;;5.23;1.90;;;0.60;99.90;;;;;;5033813;28;20044;-77
2022/01/06 00:53:43;;;;;;;9.13;2.47;;;0.60;99.90;;;;;;5033875;28;20034;-77
2022/01/06 00:56:09;;;;;;;11.63;2.87;;;0.60;99.90;;;;;;5033860;28;20053;-77
2022/01/06 00:58:34;;;;;;;6.80;2.20;;;0.60;99.90;;;;;;5033749;28;20114;-77
2022/01/06 01:01:00;;;;;;;6.13;2.40;;;0.60;99.90;;;;;;5033788;28;20091;-77
2022/01/06 01:03:27;;;;;;;9.00;2.07;;;0.50;99.90;;;;;;5033948;28;20028;-77
2022/01/06 01:05:55;;;;;;;7.90;2.20;;;0.50;99.90;;;;;;5033444;28;20513;-76
2022/01/06 01:08:22;;;;;;;10.40;2.33;;;0.50;99.90;;;;;;5033676;28;20029;-77
2022/01/06 01:10:50;;;;;;;9.63;2.03;;;0.50;99.90;;;;;;5033914;28;20017;-77
2022/01/06 01:13:18;;;;;;;10.80;2.13;;;0.50;99.90;;;;;;5033307;28;20063;-77
2022/01/06 01:15:55;;;;;;;9.43;2.80;;;0.60;99.90;;;;;;5033275;28;20113;-77
2022/01/06 01:18:22;;;;;;;7.00;2.13;;;0.60;99.90;;;;;;5033574;28;20022;-77
2022/01/06 01:20:49;;;;;;;10.73;2.20;;;0.60;99.90;;;;;;5033315;28;20119;-78
2022/01/06 01:23:15;;;;;;;8.30;2.43;;;0.60;99.90;;;;;;5033213;28;20091;-78
2022/01/06 01:25:43;;;;;;;10.57;2.60;;;0.60;99.90;;;;;;5032167;28;20133;-78
2022/01/06 01:28:10;;;;;;;6.93;2.50;;;0.70;99.90;;;;;;5033614;28;20041;-78
2022/01/06 01:33:24;;;;;;;5.00;2.00;;;0.80;99.90;;;;;;5013902;28;20044;-78
2022/01/06 01:35:50;;;;;;;8.60;2.20;;;0.80;99.90;;;;;;5033134;28;20034;-78
2022/01/06 01:38:16;;;;;;;6.57;2.00;;;0.80;99.90;;;;;;5031698;28;20040;-78
2022/01/06 01:40:41;;;;;;;9.80;2.10;;;0.80;99.90;;;;;;5032924;28;20021;-77
2022/01/06 01:43:07;;;;;;;7.30;2.23;;;0.80;99.90;;;;;;5032957;28;20026;-78
2022/01/06 01:45:34;;;;;;;9.10;2.10;;;0.80;99.90;;;;;;5033157;28;20038;-78
2022/01/06 01:48:05;;;;;;;5.03;1.90;;;0.70;99.90;;;;;;5033185;28;20108;-77
2022/01/06 01:50:31;;;;;;;7.50;2.13;;;0.80;99.90;;;;;;5033151;28;20109;-78
2022/01/06 01:52:58;;;;;;;5.03;2.13;;;0.80;99.90;;;;;;5032828;28;20116;-78
2022/01/06 01:55:29;;;;;;;3.80;1.90;;;0.80;99.90;;;;;;5032888;28;20037;-78
2022/01/06 01:57:56;;;;;;;6.00;2.17;;;0.80;99.90;;;;;;5031488;28;20411;-78
2022/01/06 02:00:24;;;;;;;6.93;1.93;;;0.80;99.90;;;;;;5033391;28;20036;-77
2022/01/06 02:02:49;;;;;;;11.60;2.40;;;0.80;99.90;;;;;;5032887;28;20459;-77
2022/01/06 02:05:21;;;;;;;5.97;2.17;;;0.80;99.90;;;;;;5033027;28;20021;-78
2022/01/06 02:07:47;;;;;;;9.53;2.77;;;0.80;99.90;;;;;;5033010;28;20171;-78
2022/01/06 02:10:13;;;;;;;7.23;2.27;;;0.80;99.90;;;;;;5032892;28;20108;-78
2022/01/06 02:12:41;;;;;;;4.83;2.10;;;0.80;99.90;;;;;;5032675;28;20044;-77
2022/01/06 02:15:09;;;;;;;10.37;2.27;;;0.80;99.90;;;;;;5032657;28;20026;-77
2022/01/06 02:17:36;;;;;;;5.03;1.87;;;0.80;99.90;;;;;;5032728;28;20159;-77
2022/01/06 02:20:04;;;;;;;7.93;2.70;;;0.80;99.90;;;;;;5032827;28;20013;-77
2022/01/06 02:22:30;;;;;;;5.93;2.10;;;0.80;99.90;;;;;;5032808;28;20044;-78
2022/01/06 02:24:56;;;;;;;11.10;2.20;;;0.80;99.90;;;;;;5030974;28;20053;-79
2022/01/06 02:27:22;;;;;;;9.57;2.60;;;0.80;99.90;;;;;;5032563;28;20092;-78
2022/01/06 02:29:48;;;;;;;4.90;2.20;;;0.80;99.90;;;;;;5031210;28;20060;-78
2022/01/06 02:32:16;;;;;;;6.00;2.10;;;0.80;99.90;;;;;;5031145;28;20029;-78
2022/01/06 02:34:44;;;;;;;7.30;2.40;;;0.90;99.90;;;;;;5032531;28;20029;-78
2022/01/06 02:37:25;;;;;;;7.23;2.20;;;0.90;99.90;;;;;;5032577;28;20041;-76
2022/01/06 02:39:51;;;;;;;8.23;2.23;;;0.90;99.90;;;;;;5031026;28;20029;-77
2022/01/06 02:42:16;;;;;;;9.47;2.70;;;0.80;99.90;;;;;;5032625;28;20021;-78
2022/01/06 02:44:42;;;;;;;9.07;2.40;;;0.90;99.90;;;;;;5032712;28;20029;-76
2022/01/06 02:47:08;;;;;;;7.83;2.30;;;0.80;99.90;;;;;;5031065;28;20026;-77
2022/01/06 02:49:34;;;;;;;5.70;2.20;;;0.80;99.90;;;;;;5032515;28;20026;-77
2022/01/06 02:52:00;;;;;;;11.57;2.70;;;0.80;99.90;;;;;;5030981;28;20032;-77
2022/01/06 02:54:27;;;;;;;6.33;2.20;;;0.70;99.90;;;;;;5033716;28;20083;-77
2022/01/06 02:56:52;;;;;;;8.97;2.70;;;0.80;99.90;;;;;;5035788;28;20108;-78
2022/01/06 02:59:19;;;;;;;4.57;2.10;;;0.70;99.90;;;;;;5035769;28;20065;-79
2022/01/06 03:01:45;;;;;;;8.13;2.30;;;0.70;99.90;;;;;;5035732;28;20026;-78
2022/01/06 03:04:12;;;;;;;8.00;2.50;;;0.80;99.90;;;;;;5035926;28;20076;-76
2022/01/06 03:06:39;;;;;;;6.97;2.40;;;0.80;99.90;;;;;;5035829;28;20327;-77
2022/01/06 03:09:05;;;;;;;6.33;2.10;;;0.90;99.90;;;;;;5034288;28;20048;-77
2022/01/06 03:11:32;;;;;;;6.67;2.40;;;0.80;99.90;;;;;;5035623;28;20116;-77
2022/01/06 03:13:59;;;;;;;6.73;2.10;;;0.80;99.90;;;;;;5034167;28;20029;-77
2022/01/06 03:16:25;;;;;;;8.83;2.47;;;0.80;99.90;;;;;;5036205;28;20297;-77
2022/01/06 03:18:50;;;;;;;6.70;2.27;;;0.80;99.90;;;;;;5035749;28;20061;-77
2022/01/06 03:21:16;;;;;;;6.77;2.00;;;0.80;99.90;;;;;;5035576;28;20414;-77
2022/01/06 03:23:42;;;;;;;5.73;2.00;;;0.80;99.90;;;;;;5035131;28;20120;-77
2022/01/06 03:26:07;;;;;;;7.70;2.80;;;0.90;99.90;;;;;;5035558;28;20025;-78
2022/01/06 03:28:33;;;;;;;5.97;2.17;;;0.90;99.90;;;;;;5035201;28;20059;-76
2022/01/06 03:30:59;;;;;;;7.30;2.13;;;0.90;99.90;;;;;;5035198;28;20024;-78
2022/01/06 03:33:24;;;;;;;9.33;2.47;;;1.00;99.90;;;;;;5035062;28;20070;-77
2022/01/06 03:35:50;;;;;;;8.27;2.13;;;1.00;99.90;;;;;;5033722;28;20034;-77
2022/01/06 03:38:16;;;;;;;12.57;2.20;;;1.00;99.90;;;;;;5035286;28;20028;-77
2022/01/06 03:40:41;;;;;;;6.33;2.10;;;0.90;99.90;;;;;;5033967;28;20533;-77
2022/01/06 03:43:08;;;;;;;5.77;2.00;;;0.90;99.90;;;;;;5035184;28;20021;-77
2022/01/06 03:45:34;;;;;;;5.00;2.10;;;0.90;99.90;;;;;;5035286;28;20124;-78
2022/01/06 03:48:00;;;;;;;5.63;2.13;;;0.90;99.90;;;;;;5034841;28;20053;-79
2022/01/06 03:50:26;;;;;;;4.37;1.90;;;1.00;99.90;;;;;;5034885;28;20026;-79
2022/01/06 03:52:52;;;;;;;8.73;2.30;;;0.90;99.90;;;;;;5035094;28;20374;-79
2022/01/06 03:55:19;;;;;;;8.13;2.40;;;0.90;99.90;;;;;;5034611;28;20033;-79
2022/01/06 03:57:46;;;;;;;5.20;2.17;;;0.90;99.90;;;;;;5034927;28;20021;-79
2022/01/06 04:00:15;;;;;;;9.17;2.10;;;0.90;99.90;;;;;;5033866;28;20378;-79
2022/01/06 04:02:42;;;;;;;6.87;2.07;;;0.90;99.90;;;;;;5034575;28;20029;-79
2022/01/06 04:05:09;;;;;;;5.83;2.37;;;0.90;99.90;;;;;;5033248;28;20029;-79
2022/01/06 04:07:35;;;;;;;5.73;2.37;;;0.80;99.90;;;;;;5033155;28;20025;-77
2022/01/06 04:10:01;;;;;;;7.53;2.23;;;0.80;99.90;;;;;;5034464;28;20052;-77
2022/01/06 04:12:27;;;;;;;10.70;3.27;;;0.90;99.90;;;;;;5033042;28;20451;-78
2022/01/06 04:14:52;;;;;;;9.83;2.33;;;0.90;99.90;;;;;;5034706;28;20092;-78
2022/01/06 04:17:18;;;;;;;7.17;2.23;;;0.90;99.90;;;;;;5034346;28;20450;-77
2022/01/06 04:19:43;;;;;;;6.60;2.30;;;0.90;99.90;;;;;;5034547;28;20033;-77
2022/01/06 04:22:09;;;;;;;6.53;2.40;;;0.80;99.90;;;;;;5034678;28;20096;-78
2022/01/06 04:24:35;;;;;;;6.47;2.70;;;0.80;99.90;;;;;;5032639;28;20045;-77
2022/01/06 04:27:01;;;;;;;5.77;2.30;;;0.80;99.90;;;;;;5033129;28;20037;-78
2022/01/06 04:29:27;;;;;;;6.80;2.50;;;0.70;99.90;;;;;;5033981;28;20029;-78
2022/01/06 04:31:53;;;;;;;6.50;2.50;;;0.70;99.90;;;;;;5034158;28;20102;-77
2022/01/06 04:34:18;;;;;;;9.20;3.03;;;0.70;99.90;;;;;;5032516;28;20030;-77
2022/01/06 04:36:50;;;;;;;10.03;2.73;;;0.70;99.90;;;;;;5034313;28;20075;-77
2022/01/06 04:39:15;;;;;;;5.53;2.20;;;0.70;99.90;;;;;;5032573;28;20017;-77
2022/01/06 04:41:41;;;;;;;5.40;2.30;;;0.70;99.90;;;;;;5033999;28;20033;-78
2022/01/06 04:44:07;;;;;;;6.43;2.77;;;0.60;99.90;;;;;;5033996;28;20029;-78
2022/01/06 04:46:32;;;;;;;6.37;2.10;;;0.60;99.90;;;;;;5033974;28;20096;-78
2022/01/06 04:48:58;;;;;;;7.83;2.80;;;0.60;99.90;;;;;;5034162;28;20378;-79
2022/01/06 04:51:24;;;;;;;8.23;2.63;;;0.60;99.90;;;;;;5032208;28;20467;-79
2022/01/06 04:53:49;;;;;;;8.37;2.40;;;0.70;99.90;;;;;;5034001;28;20035;-79
2022/01/06 04:56:15;;;;;;;6.50;2.37;;;0.70;99.90;;;;;;5034047;28;20129;-79
2022/01/06 04:58:41;;;;;;;6.63;2.73;;;0.80;99.90;;;;;;5033749;28;20056;-78
2022/01/06 05:01:06;;;;;;;6.90;2.37;;;0.80;99.90;;;;;;5033979;28;20398;-78
2022/01/06 05:03:32;;;;;;;6.07;2.63;;;0.70;99.90;;;;;;5033338;28;20029;-78
2022/01/06 05:05:57;;;;;;;5.13;2.27;;;0.70;99.90;;;;;;5032161;28;20041;-78
2022/01/06 05:08:23;;;;;;;8.47;2.50;;;0.70;99.90;;;;;;5033457;28;20033;-78
2022/01/06 05:10:48;;;;;;;5.70;3.10;;;0.70;99.90;;;;;;5033499;28;20113;-77
2022/01/06 05:13:17;;;;;;;6.27;2.70;;;0.70;99.90;;;;;;5033535;28;20080;-77
2022/01/06 05:15:42;;;;;;;6.57;2.27;;;0.60;99.90;;;;;;5033339;28;20417;-77
2022/01/06 05:18:08;;;;;;;8.07;2.90;;;0.70;99.90;;;;;;5032989;28;20074;-77
2022/01/06 05:20:37;;;;;;;7.67;2.90;;;0.60;99.90;;;;;;5033574;28;20108;-78
2022/01/06 05:23:03;;;;;;;9.20;2.57;;;0.60;99.90;;;;;;5033432;28;20514;-77
2022/01/06 05:25:30;;;;;;;5.97;2.57;;;0.60;99.90;;;;;;5033584;28;20049;-77
2022/01/06 05:27:56;;;;;;;5.80;2.67;;;0.50;99.90;;;;;;5033808;28;20028;-77
2022/01/06 05:30:22;;;;;;;6.40;2.87;;;0.50;99.90;;;;;;5033241;28;20029;-77
2022/01/06 05:32:48;;;;;;;6.03;2.50;;;0.40;99.90;;;;;;5033591;28;20033;-77
2022/01/06 05:35:13;;;;;;;5.97;2.60;;;0.40;99.90;;;;;;5033130;28;20032;-78
2022/01/06 05:37:39;;;;;;;3.87;2.17;;;0.40;99.90;;;;;;5031787;28;20028;-77
2022/01/06 05:40:06;;;;;;;4.73;2.67;;;0.30;99.90;;;;;;5033248;28;20028;-77
2022/01/06 05:42:31;;;;;;;5.00;2.40;;;0.30;99.90;;;;;;5032957;28;20100;-78
2022/01/06 05:44:57;;;;;;;6.27;2.50;;;0.40;99.90;;;;;;5033167;28;20488;-78
2022/01/06 05:47:23;;;;;;;5.27;2.33;;;0.30;99.90;;;;;;5033482;28;20025;-78
2022/01/06 05:49:48;;;;;;;6.73;2.30;;;0.40;99.90;;;;;;5033213;28;20112;-78
2022/01/06 05:52:14;;;;;;;7.90;2.53;;;0.40;99.90;;;;;;5032940;28;20113;-78
2022/01/06 05:54:40;;;;;;;5.00;2.07;;;0.40;99.90;;;;;;5032193;28;20157;-78
2022/01/06 05:57:07;;;;;;;2.83;1.90;;;0.50;99.90;;;;;;5031827;28;20044;-77
2022/01/06 05:59:32;;;;;;;6.07;2.67;;;0.50;99.90;;;;;;5033032;28;20018;-77
2022/01/06 06:01:59;;;;;;;3.17;1.70;;;0.50;99.90;;;;;;5033447;28;20021;-78
2022/01/06 06:04:24;;;;;;;5.27;2.80;;;0.60;99.90;;;;;;5033684;28;20108;-78
2022/01/06 06:06:50;;;;;;;4.77;1.70;;;0.50;99.90;;;;;;5033302;28;20173;-78
2022/01/06 06:09:16;;;;;;;5.90;2.03;;;0.50;99.90;;;;;;5033381;28;20030;-78
2022/01/06 06:11:41;;;;;;;3.60;1.90;;;0.50;99.90;;;;;;5033291;28;20028;-78
2022/01/06 06:14:07;;;;;;;7.03;1.83;;;0.50;99.90;;;;;;5031614;28;20037;-78
2022/01/06 06:16:32;;;;;;;5.03;2.23;;;0.50;99.90;;;;;;5033384;28;20074;-78
2022/01/06 06:18:58;;;;;;;3.50;2.10;;;0.60;99.90;;;;;;5033376;28;20060;-77
2022/01/06 06:21:23;;;;;;;3.57;1.70;;;0.60;99.90;;;;;;5032707;28;20032;-77
2022/01/06 06:23:50;;;;;;;2.70;1.70;;;0.60;99.90;;;;;;5033264;28;20045;-77
2022/01/06 06:26:15;;;;;;;6.27;1.70;;;0.70;99.90;;;;;;5033265;28;20025;-76
2022/01/06 06:28:41;;;;;;;2.90;1.60;;;0.70;99.90;;;;;;5033611;28;20378;-77
2022/01/06 06:31:07;;;;;;;3.10;1.87;;;0.70;99.90;;;;;;5036940;28;20075;-77
2022/01/06 06:33:32;;;;;;;4.17;1.97;;;0.70;99.90;;;;;;5036744;28;20422;-76
2022/01/06 06:35:58;;;;;;;7.23;1.97;;;0.70;99.90;;;;;;5035586;28;20029;-76
2022/01/06 06:38:23;;;;;;;4.47;2.03;;;0.60;99.90;;;;;;5035202;28;20053;-76
2022/01/06 06:40:49;;;;;;;4.03;1.57;;;0.60;99.90;;;;;;5036648;28;20084;-76
2022/01/06 06:43:14;;;;;;;3.37;1.53;;;0.60;99.90;;;;;;5036567;28;20029;-77
2022/01/06 06:45:41;;;;;;;5.50;1.80;;;0.60;99.90;;;;;;5036412;28;20510;-77
2022/01/06 06:48:07;;;;;;;4.03;1.93;;;0.60;99.90;;;;;;5036475;28;20068;-77
2022/01/06 06:50:33;;;;;;;5.20;1.73;;;0.50;99.90;;;;;;5036795;28;20021;-77
2022/01/06 06:52:59;;;;;;;4.80;1.63;;;0.40;99.90;;;;;;5036256;28;20079;-77
2022/01/06 06:55:25;;;;;;;4.20;1.87;;;0.50;99.90;;;;;;5036152;28;20083;-77
2022/01/06 06:57:50;;;;;;;4.60;1.60;;;0.40;99.90;;;;;;5036410;28;20030;-77
2022/01/06 07:00:16;;;;;;;2.47;1.90;;;0.40;99.90;;;;;;5036465;28;20025;-77
2022/01/06 07:02:42;;;;;;;2.70;1.67;;;0.40;99.90;;;;;;5035997;28;20033;-77
2022/01/06 07:05:09;;;;;;;3.97;1.80;;;0.40;99.90;;;;;;5036052;28;20478;-77
2022/01/06 07:07:34;;;;;;;2.83;1.53;;;0.40;99.90;;;;;;5036271;28;20033;-77
2022/01/06 07:10:00;;;;;;;4.87;1.83;;;0.40;99.90;;;;;;5036064;28;20331;-77
2022/01/06 07:12:25;;;;;;;4.10;1.60;;;0.30;99.90;;;;;;5036107;28;20475;-78
2022/01/06 07:14:51;;;;;;;3.10;1.80;;;0.30;99.90;;;;;;5034987;28;20025;-78
2022/01/06 07:17:17;;;;;;;3.60;2.23;;;0.30;99.90;;;;;;5035985;28;20343;-78
2022/01/06 07:19:42;;;;;;;3.43;1.87;;;0.30;99.90;;;;;;5034535;28;20080;-78
2022/01/06 07:22:08;;;;;;;6.03;2.10;;;0.30;99.90;;;;;;5034333;28;20414;-77
2022/01/06 07:24:35;;;;;;;4.70;2.10;;;0.30;99.90;;;;;;5035468;28;20046;-78
2022/01/06 07:27:01;;;;;;;3.07;1.70;;;0.30;99.90;;;;;;5036193;28;20029;-78
2022/01/06 07:29:28;;;;;;;6.23;1.70;;;0.30;99.90;;;;;;5035854;28;20091;-78
2022/01/06 07:31:53;;;;;;;6.23;1.80;;;0.30;99.90;;;;;;5035385;28;20025;-78
2022/01/06 07:34:19;;;;;;;4.00;1.87;;;0.30;99.90;;;;;;5035275;28;20033;-78
2022/01/06 07:36:45;;;;;;;6.67;2.13;;;0.30;99.90;;;;;;5035719;28;20022;-77
2022/01/06 07:39:11;;;;;;;4.40;1.93;;;0.40;99.90;;;;;;5035157;28;20063;-78
2022/01/06 07:41:36;;;;;;;2.90;1.63;;;0.40;99.90;;;;;;5035655;28;20033;-77
2022/01/06 07:44:07;;;;;;;3.57;2.03;;;0.40;99.90;;;;;;5034507;28;20021;-76
2022/01/06 07:46:34;;;;;;;2.80;1.83;;;0.50;99.90;;;;;;5035234;28;20022;-76
2022/01/06 07:49:00;;;;;;;2.57;1.60;;;0.40;99.90;;;;;;5034624;28;20102;-75
2022/01/06 07:51:28;;;;;;;4.03;1.93;;;0.40;99.90;;;;;;5035136;28;20045;-77
2022/01/06 07:53:54;;;;;;;6.47;2.10;;;0.40;99.90;;;;;;5024164;28;20033;-78
2022/01/06 07:56:20;;;;;;;2.70;1.70;;;0.50;99.90;;;;;;5033352;28;20442;-75
2022/01/06 07:58:46;;;;;;;3.90;1.90;;;0.60;99.90;;;;;;5034176;28;20017;-75
2022/01/06 08:01:13;;;;;;;6.07;2.07;;;0.60;99.90;;;;;;5034886;28;20029;-75
2022/01/06 08:03:39;;;;;;;5.03;1.93;;;0.50;99.90;;;;;;5035193;28;20028;-75
2022/01/06 08:06:04;;;;;;;2.57;1.50;;;0.50;99.90;;;;;;5035371;28;20393;-75
2022/01/06 08:08:30;;;;;;;4.60;1.80;;;0.40;99.90;;;;;;5034913;28;20033;-75
2022/01/06 08:10:55;;;;;;;4.43;1.83;;;0.50;99.90;;;;;;5033243;28;20029;-70
2022/01/06 08:13:21;;;;;;;3.93;2.10;;;0.50;99.90;;;;;;5034087;28;20029;-76
2022/01/06 08:15:47;;;;;;;4.27;1.80;;;0.50;99.90;;;;;;5033017;28;20162;-76
2022/01/06 08:18:12;;;;;;;2.47;1.90;;;0.50;99.90;;;;;;5034733;28;20052;-76
2022/01/06 08:20:38;;;;;;;3.50;1.60;;;0.60;99.90;;;;;;5034213;28;20043;-76
2022/01/06 08:23:08;;;;;;;4.10;1.93;;;0.60;99.90;;;;;;5034097;28;20046;-76
2022/01/06 08:25:34;;;;;;;5.73;2.07;;;0.50;99.90;;;;;;5034271;28;20048;-76
2022/01/06 08:28:00;;;;;;;4.23;2.23;;;0.50;99.90;;;;;;5033962;28;20071;-75
2022/01/06 08:30:25;;;;;;;4.80;2.00;;;0.60;99.90;;;;;;5029126;28;20033;-81
2022/01/06 08:32:52;;;;;;;4.67;2.10;;;0.70;99.90;;;;;;5038239;28;21518;-78
2022/01/06 08:35:18;;;;;;;4.50;2.10;;;0.80;99.90;;;;;;5029234;28;20053;-79
2022/01/06 08:37:44;;;;;;;4.60;2.00;;;0.80;99.90;;;;;;5029056;28;20060;-78
2022/01/06 08:40:10;;;;;;;4.87;2.20;;;0.90;99.90;;;;;;5024732;28;20438;-78
2022/01/06 08:42:36;;;;;;;3.23;2.20;;;0.90;99.90;;;;;;5020810;28;20848;-69
2022/01/06 08:45:03;;;;;;;8.43;2.30;;;0.90;99.90;;;;;;5007709;28;20113;-68
2022/01/06 08:47:29;;;;;;;5.13;2.00;;;0.90;99.90;;;;;;5008212;28;20034;-69
2022/01/06 08:49:55;;;;;;;6.63;2.20;;;1.10;99.90;;;;;;5025847;28;20025;-78
2022/01/06 08:52:22;;;;;;;3.37;2.10;;;1.00;99.90;;;;;;5029109;28;20367;-79
2022/01/06 08:54:48;;;;;;;3.53;2.10;;;1.10;99.90;;;;;;5027727;28;20520;-79
2022/01/06 08:57:13;;;;;;;6.67;2.10;;;1.00;99.90;;;;;;5027781;28;20025;-77
2022/01/06 08:59:39;;;;;;;4.00;2.20;;;1.10;99.90;;;;;;5032494;28;20037;-77
2022/01/06 09:02:05;;;;;;;6.60;2.30;;;1.10;99.90;;;;;;5033025;28;20100;-77
2022/01/06 09:04:30;;;;;;;5.20;2.13;;;1.10;99.90;;;;;;5033301;28;20052;-77
2022/01/06 09:06:58;;;;;;;3.60;2.30;;;1.10;99.90;;;;;;5031947;28;20029;-77
2022/01/06 09:09:24;;;;;;;5.83;2.50;;;1.10;99.90;;;;;;5033364;28;20079;-77
2022/01/06 09:11:50;;;;;;;7.80;2.50;;;1.30;99.90;;;;;;5033418;28;20025;-77
2022/01/06 09:14:16;;;;;;;4.47;2.20;;;1.30;99.90;;;;;;5033228;28;20492;-76
2022/01/06 09:16:43;;;;;;;3.43;2.30;;;1.30;99.90;;;;;;5033000;28;20029;-76
2022/01/06 09:19:09;;;;;;;7.97;3.00;;;1.40;99.90;;;;;;5033096;28;20071;-75
2022/01/06 09:21:35;;;;;;;4.23;2.50;;;1.60;99.90;;;;;;5031342;28;20025;-76
2022/01/06 09:24:06;;;;;;;6.53;3.10;;;1.60;99.90;;;;;;5032993;28;20068;-76
2022/01/06 09:26:32;;;;;;;3.70;2.20;;;1.70;99.90;;;;;;5031742;28;20045;-77
2022/01/06 09:28:57;;;;;;;6.83;2.67;;;1.80;99.90;;;;;;5030703;28;20025;-81
2022/01/06 09:31:23;;;;;;;5.80;2.30;;;1.90;99.90;;;;;;5029959;28;20347;-77
2022/01/06 09:33:49;;;;;;;5.03;2.30;;;1.90;99.90;;;;;;5030814;28;20509;-76
2022/01/06 09:36:14;;;;;;;5.63;2.50;;;1.90;99.90;;;;;;5031849;28;20025;-76
2022/01/06 09:38:41;;;;;;;5.00;1.90;;;1.90;99.90;;;;;;5031455;28;20030;-77
2022/01/06 09:41:07;;;;;;;6.43;2.97;;;1.90;99.90;;;;;;5030178;28;20022;-76
2022/01/06 09:43:37;;;;;;;6.57;2.40;;;1.90;99.90;;;;;;5024687;28;20022;-77
2022/01/06 09:46:08;;;;;;;6.40;3.10;;;1.90;99.90;;;;;;5017732;28;20029;-78
2022/01/06 09:48:35;;;;;;;4.47;2.20;;;1.90;99.90;;;;;;5030958;28;20029;-72
2022/01/06 09:51:01;;;;;;;7.10;2.43;;;1.90;99.90;;;;;;5029789;28;20232;-67
2022/01/06 09:53:26;;;;;;;5.67;2.50;;;1.80;99.90;;;;;;5029378;28;20146;-84
2022/01/06 09:55:53;;;;;;;3.67;2.43;;;1.90;99.90;;;;;;5031750;28;20033;-75
2022/01/06 09:58:24;;;;;;;4.10;2.23;;;1.90;99.90;;;;;;5032503;28;20025;-74
2022/01/06 10:00:51;;;;;;;4.40;2.40;;;1.80;99.90;;;;;;5032557;28;20117;-75
2022/01/06 10:03:16;;;;;;;3.83;2.37;;;1.90;99.90;;;;;;5034702;28;20018;-74
2022/01/06 10:05:49;;;;;;;4.07;2.63;;;1.90;99.90;;;;;;5036436;28;20083;-74
2022/01/06 10:08:27;;;;;;;4.70;2.67;;;1.90;99.90;;;;;;5036730;28;20412;-75
2022/01/06 10:11:07;;;;;;;5.07;2.90;;;2.10;99.90;;;;;;5035221;28;20374;-75
2022/01/06 10:13:32;;;;;;;6.20;2.67;;;2.30;99.90;;;;;;5036473;28;20459;-76
2022/01/06 10:15:58;;;;;;;7.50;2.50;;;2.30;99.90;;;;;;5036868;28;20026;-75
2022/01/06 10:18:23;;;;;;;5.80;2.77;;;2.40;99.90;;;;;;5036502;28;20084;-75
2022/01/06 10:20:52;;;;;;;5.83;2.57;;;2.40;99.90;;;;;;5036213;28;20021;-75
2022/01/06 10:23:18;;;;;;;5.23;2.43;;;2.50;99.90;;;;;;5036356;28;20038;-75
2022/01/06 10:25:49;;;;;;;4.93;2.60;;;2.40;99.90;;;;;;5036028;28;20105;-75
2022/01/06 10:28:19;;;;;;;7.47;2.93;;;2.60;99.90;;;;;;5034758;28;20440;-76
2022/01/06 10:30:48;;;;;;;6.77;3.03;;;2.60;99.90;;;;;;5036030;28;20048;-76
2022/01/06 10:33:21;;;;;;;3.70;2.43;;;2.60;99.90;;;;;;5035588;28;20068;-76
2022/01/06 10:35:48;;;;;;;6.60;2.80;;;2.70;99.90;;;;;;5035563;28;20417;-76
2022/01/06 10:38:24;;;;;;;6.87;3.13;;;2.70;99.90;;;;;;5035761;28;20096;-76
2022/01/06 10:40:50;;;;;;;4.90;2.40;;;2.60;99.90;;;;;;5035441;28;20100;-76
2022/01/06 10:43:15;;;;;;;6.67;3.27;;;2.50;99.90;;;;;;5035300;28;20057;-76
2022/01/06 10:45:41;;;;;;;6.00;2.90;;;2.50;99.90;;;;;;5035361;28;20029;-76
2022/01/06 10:48:06;;;;;;;6.50;3.50;;;2.50;99.90;;;;;;5034199;28;20108;-76
2022/01/06 10:50:38;;;;;;;5.27;2.90;;;2.40;99.90;;;;;;5035519;28;20038;-76
2022/01/06 10:53:10;;;;;;;7.17;3.00;;;2.40;99.90;;;;;;5035775;28;20049;-75
2022/01/06 10:55:41;;;;;;;5.50;3.00;;;2.20;99.90;;;;;;5035616;28;20355;-75
2022/01/06 10:58:12;;;;;;;6.43;3.00;;;2.10;99.90;;;;;;5035877;28;20021;-75
2022/01/06 11:00:40;;;;;;;6.50;3.60;;;2.10;99.90;;;;;;5035356;28;20128;-75
2022/01/06 11:03:14;;;;;;;8.33;3.50;;;1.90;99.90;;;;;;5035271;28;20030;-75
2022/01/06 11:05:50;;;;;;;7.40;4.07;;;1.80;99.90;;;;;;5035087;28;20116;-76
2022/01/06 11:08:23;;;;;;;6.10;3.53;;;1.70;99.90;;;;;;5033962;28;20053;-76
2022/01/06 11:11:02;;;;;;;5.90;3.30;;;1.70;99.90;;;;;;5033900;28;20026;-76
2022/01/06 11:13:31;;;;;;;6.63;3.67;;;1.70;99.90;;;;;;5035103;28;20087;-78
2022/01/06 11:15:57;;;;;;;5.43;4.10;;;1.70;99.90;;;;;;5033403;28;20112;-77
2022/01/06 11:18:24;;;;;;;8.60;4.13;;;1.70;99.90;;;;;;5035137;28;20101;-79
2022/01/06 11:20:51;;;;;;;6.23;4.37;;;1.70;99.90;;;;;;5033979;28;20540;-80
2022/01/06 11:23:22;;;;;;;8.87;4.20;;;1.80;99.90;;;;;;5034813;28;20447;-81
2022/01/06 11:26:01;;;;;;;5.57;3.23;;;1.80;99.90;;;;;;5034389;28;20044;-81
2022/01/06 11:28:30;;;;;;;7.17;3.57;;;1.90;99.90;;;;;;5035448;28;20029;-80
2022/01/06 11:30:56;;;;;;;5.60;3.37;;;2.00;99.90;;;;;;5033705;28;20077;-80
2022/01/06 11:33:21;;;;;;;6.43;3.20;;;2.00;99.90;;;;;;5035394;28;20025;-79
2022/01/06 11:35:53;;;;;;;8.53;3.63;;;2.00;99.90;;;;;;5034841;28;20382;-79
2022/01/06 11:38:23;;;;;;;8.73;4.03;;;1.90;99.90;;;;;;5034902;28;20167;-80
2022/01/06 11:40:50;;;;;;;7.53;3.60;;;1.90;99.90;;;;;;5035185;28;20071;-79
2022/01/06 11:43:17;;;;;;;7.63;4.43;;;1.90;99.90;;;;;;5034817;28;20422;-79
2022/01/06 11:45:43;;;;;;;14.93;7.33;;;1.90;99.90;;;;;;5033465;28;20361;-81
2022/01/06 11:48:13;;;;;;;9.03;4.97;;;2.00;99.90;;;;;;5034816;28;20021;-80
2022/01/06 11:50:41;;;;;;;9.30;5.07;;;2.00;99.90;;;;;;5035022;28;20028;-80
2022/01/06 11:53:08;;;;;;;8.70;4.23;;;1.90;99.90;;;;;;5034959;28;20029;-80
2022/01/06 11:55:46;;;;;;;6.57;3.90;;;2.10;99.90;;;;;;5049854;28;20124;-80
2022/01/06 11:58:17;;;;;;;7.13;4.30;;;2.10;99.90;;;;;;5034843;28;20438;-79
2022/01/06 12:01:05;;;;;;;6.10;3.60;;;2.00;99.90;;;;;;5033171;28;20482;-79
2022/01/06 12:03:45;;;;;;;10.03;3.37;;;2.00;99.90;;;;;;5034521;28;20100;-79
2022/01/06 12:06:30;;;;;;;5.47;3.80;;;2.00;99.90;;;;;;5034614;28;20033;-79
2022/01/06 12:08:57;;;;;;;5.60;3.60;;;2.00;99.90;;;;;;5049734;28;20057;-79
2022/01/06 12:11:27;;;;;;;7.33;3.67;;;1.90;99.90;;;;;;5018765;28;20022;-81
2022/01/06 12:13:56;;;;;;;7.60;4.13;;;2.00;99.90;;;;;;5027544;28;20496;-75
2022/01/06 12:16:29;;;;;;;9.33;3.83;;;1.90;99.90;;;;;;5033794;28;20032;-76
2022/01/06 12:18:56;;;;;;;9.30;3.80;;;1.80;99.90;;;;;;5032883;28;20025;-76
2022/01/06 12:21:22;;;;;;;8.73;4.40;;;1.80;99.90;;;;;;5034014;28;20029;-77
2022/01/06 12:24:06;;;;;;;7.47;4.23;;;1.80;99.90;;;;;;5034413;28;20052;-74
2022/01/06 12:26:33;;;;;;;7.07;4.17;;;1.90;99.90;;;;;;5033116;28;20121;-75
2022/01/06 12:29:00;;;;;;;10.57;3.73;;;2.10;99.90;;;;;;5034154;28;20036;-75
2022/01/06 12:31:28;;;;;;;6.40;3.80;;;2.30;99.90;;;;;;5032596;28;20029;-76
2022/01/06 12:33:59;;;;;;;8.83;3.50;;;2.50;99.90;;;;;;5034399;28;20026;-75
2022/01/06 12:36:26;;;;;;;6.13;3.60;;;2.70;99.90;;;;;;5033940;28;20025;-75
2022/01/06 12:38:52;;;;;;;8.60;4.10;;;2.80;99.90;;;;;;5033865;28;20070;-76
2022/01/06 12:41:28;;;;;;;7.57;3.30;;;3.00;99.90;;;;;;5034226;28;20112;-75
2022/01/06 12:43:55;;;;;;;8.40;3.70;;;3.10;99.90;;;;;;5034610;28;20355;-77
2022/01/06 12:46:23;;;;;;;7.43;3.57;;;3.10;99.90;;;;;;5033592;28;20462;-76
2022/01/06 12:48:51;;;;;;;9.30;3.33;;;3.10;99.90;;;;;;5033685;28;20029;-76
2022/01/06 12:51:18;;;;;;;6.10;3.30;;;3.20;99.90;;;;;;5013928;28;20160;-75
2022/01/06 12:53:46;;;;;;;11.00;3.53;;;3.10;99.90;;;;;;5029031;28;20036;-76
2022/01/06 12:56:33;;;;;;;9.00;4.33;;;3.10;99.90;;;;;;5033434;28;20103;-76
2022/01/06 12:59:01;;;;;;;7.10;3.03;;;3.00;99.90;;;;;;5033581;28;20362;-76
2022/01/06 13:01:28;;;;;;;7.00;2.77;;;3.10;99.90;;;;;;5033379;28;20455;-77
2022/01/06 13:03:54;;;;;;;5.57;2.80;;;3.10;99.90;;;;;;5033681;28;20389;-75
2022/01/06 13:06:21;;;;;;;10.33;3.20;;;3.20;99.90;;;;;;5033587;28;20026;-75